sensor_id;sensor_type;location;lat;lon;timestamp;temperature;humidity
43338;DHT22;28933;52.492;13.434;2022-08-21T00:00:28;22.20;99.90
43338;DHT22;28933;52.492;13.434;2022-08-21T00:03:00;22.20;99.90
43338;DHT22;28933;52.492;13.434;2022-08-21T00:05:27;22.20;99.90
43338;DHT22;28933;52.492;13.434;2022-08-21T00:07:53;22.10;99.90
43338;DHT22;28933;52.492;13.434;2022-08-21T00:10:21;22.10;99.90
43338;DHT22;28933;52.492;13.434;2022-08-21T00:12:47;22.10;99.90
43338;DHT22;28933;52.492;13.434;2022-08-21T00:15:17;22.10;99.90
43338;DHT22;28933;52.492;13.434;2022-08-21T00:17:44;22.10;99.90
43338;DHT22;28933;52.492;13.434;2022-08-21T00:20:12;22.10;99.90
43338;DHT22;28933;52.492;13.434;2022-08-21T00:22:38;22.00;99.90
43338;DHT22;28933;52.492;13.434;2022-08-21T00:25:06;22.00;99.90
43338;DHT22;28933;52.492;13.434;2022-08-21T00:27:33;22.00;99.90
43338;DHT22;28933;52.492;13.434;2022-08-21T00:29:59;22.00;99.90
43338;DHT22;28933;52.492;13.434;2022-08-21T00:32:26;22.00;99.90
43338;DHT22;28933;52.492;13.434;2022-08-21T00:34:54;22.00;99.90
43338;DHT22;28933;52.492;13.434;2022-08-21T00:37:20;21.90;99.90
43338;DHT22;28933;52.492;13.434;2022-08-21T00:39:47;21.90;99.90
43338;DHT22;28933;52.492;13.434;2022-08-21T00:42:16;21.90;99.90
43338;DHT22;28933;52.492;13.434;2022-08-21T00:44:46;21.90;99.90
43338;DHT22;28933;52.492;13.434;2022-08-21T00:47:13;21.80;99.90
43338;DHT22;28933;52.492;13.434;2022-08-21T00:49:38;21.80;99.90
43338;DHT22;28933;52.492;13.434;2022-08-21T00:52:07;21.80;99.90
43338;DHT22;28933;52.492;13.434;2022-08-21T00:54:34;21.80;99.90
43338;DHT22;28933;52.492;13.434;2022-08-21T00:57:04;21.80;99.90
43338;DHT22;28933;52.492;13.434;2022-08-21T00:59:34;21.80;99.90
43338;DHT22;28933;52.492;13.434;2022-08-21T01:02:02;21.70;99.90
43338;DHT22;28933;52.492;13.434;2022-08-21T01:04:29;21.70;99.90
43338;DHT22;28933;52.492;13.434;2022-08-21T01:06:54;21.70;99.90
43338;DHT22;28933;52.492;13.434;2022-08-21T01:09:20;21.70;99.90
43338;DHT22;28933;52.492;13.434;2022-08-21T01:11:46;21.70;99.90
43338;DHT22;28933;52.492;13.434;2022-08-21T01:14:13;21.60;99.90
43338;DHT22;28933;52.492;13.434;2022-08-21T01:16:42;21.60;99.90
43338;DHT22;28933;52.492;13.434;2022-08-21T01:19:09;21.60;99.90
43338;DHT22;28933;52.492;13.434;2022-08-21T01:21:35;21.50;99.90
43338;DHT22;28933;52.492;13.434;2022-08-21T01:24:02;21.50;99.90
43338;DHT22;28933;52.492;13.434;2022-08-21T01:26:30;21.50;99.90
43338;DHT22;28933;52.492;13.434;2022-08-21T01:29:00;21.40;99.90
43338;DHT22;28933;52.492;13.434;2022-08-21T01:31:28;21.40;99.90
43338;DHT22;28933;52.492;13.434;2022-08-21T01:33:54;21.40;99.90
43338;DHT22;28933;52.492;13.434;2022-08-21T01:36:21;21.40;99.90
43338;DHT22;28933;52.492;13.434;2022-08-21T01:38:47;21.30;99.90
43338;DHT22;28933;52.492;13.434;2022-08-21T01:41:14;21.30;99.90
43338;DHT22;28933;52.492;13.434;2022-08-21T01:43:41;21.30;99.90
43338;DHT22;28933;52.492;13.434;2022-08-21T01:46:07;21.30;99.90
43338;DHT22;28933;52.492;13.434;2022-08-21T01:48:33;21.30;99.90
43338;DHT22;28933;52.492;13.434;2022-08-21T01:50:59;21.30;99.90
43338;DHT22;28933;52.492;13.434;2022-08-21T01:53:25;21.30;99.90
43338;DHT22;28933;52.492;13.434;2022-08-21T01:55:50;21.30;99.90
43338;DHT22;28933;52.492;13.434;2022-08-21T01:58:16;21.20;99.90
43338;DHT22;28933;52.492;13.434;2022-08-21T02:00:42;21.20;99.90
43338;DHT22;28933;52.492;13.434;2022-08-21T02:03:09;21.10;99.90
43338;DHT22;28933;52.492;13.434;2022-08-21T02:05:34;21.10;99.90
43338;DHT22;28933;52.492;13.434;2022-08-21T02:08:00;21.10;99.90
43338;DHT22;28933;52.492;13.434;2022-08-21T02:10:29;21.10;99.90
43338;DHT22;28933;52.492;13.434;2022-08-21T02:12:56;21.10;99.90
43338;DHT22;28933;52.492;13.434;2022-08-21T02:15:22;21.10;99.90
43338;DHT22;28933;52.492;13.434;2022-08-21T02:17:52;21.00;99.90
43338;DHT22;28933;52.492;13.434;2022-08-21T02:20:29;21.00;99.90
43338;DHT22;28933;52.492;13.434;2022-08-21T02:22:55;21.00;99.90
43338;DHT22;28933;52.492;13.434;2022-08-21T02:25:22;21.00;99.90
43338;DHT22;28933;52.492;13.434;2022-08-21T02:27:49;21.00;99.90
43338;DHT22;28933;52.492;13.434;2022-08-21T02:30:19;20.90;99.90
43338;DHT22;28933;52.492;13.434;2022-08-21T02:32:45;20.90;99.90
43338;DHT22;28933;52.492;13.434;2022-08-21T02:35:11;20.80;99.90
43338;DHT22;28933;52.492;13.434;2022-08-21T02:38:04;20.80;99.90
43338;DHT22;28933;52.492;13.434;2022-08-21T02:40:34;20.70;99.90
43338;DHT22;28933;52.492;13.434;2022-08-21T02:43:02;20.70;99.90
43338;DHT22;28933;52.492;13.434;2022-08-21T02:45:28;20.70;99.90
43338;DHT22;28933;52.492;13.434;2022-08-21T02:48:02;20.70;99.90
43338;DHT22;28933;52.492;13.434;2022-08-21T02:50:31;20.60;99.90
43338;DHT22;28933;52.492;13.434;2022-08-21T02:52:58;20.60;99.90
43338;DHT22;28933;52.492;13.434;2022-08-21T02:55:27;20.50;99.90
43338;DHT22;28933;52.492;13.434;2022-08-21T02:57:54;20.50;99.90
43338;DHT22;28933;52.492;13.434;2022-08-21T03:00:23;20.50;99.90
43338;DHT22;28933;52.492;13.434;2022-08-21T03:02:50;20.50;99.90
43338;DHT22;28933;52.492;13.434;2022-08-21T03:05:16;20.40;99.90
43338;DHT22;28933;52.492;13.434;2022-08-21T03:07:43;20.40;99.90
43338;DHT22;28933;52.492;13.434;2022-08-21T03:10:09;20.40;99.90
43338;DHT22;28933;52.492;13.434;2022-08-21T03:12:35;20.30;99.90
43338;DHT22;28933;52.492;13.434;2022-08-21T03:15:06;20.30;99.90
43338;DHT22;28933;52.492;13.434;2022-08-21T03:17:33;20.20;99.90
43338;DHT22;28933;52.492;13.434;2022-08-21T03:20:00;20.20;99.90
43338;DHT22;28933;52.492;13.434;2022-08-21T03:22:26;20.20;99.90
43338;DHT22;28933;52.492;13.434;2022-08-21T03:24:52;20.30;99.90
43338;DHT22;28933;52.492;13.434;2022-08-21T03:27:18;20.30;99.90
43338;DHT22;28933;52.492;13.434;2022-08-21T03:29:44;20.30;99.90
43338;DHT22;28933;52.492;13.434;2022-08-21T03:32:11;20.40;99.90
43338;DHT22;28933;52.492;13.434;2022-08-21T03:34:38;20.30;99.90
43338;DHT22;28933;52.492;13.434;2022-08-21T03:37:06;20.30;99.80
43338;DHT22;28933;52.492;13.434;2022-08-21T03:39:33;20.20;99.70
43338;DHT22;28933;52.492;13.434;2022-08-21T03:41:59;20.20;99.90
43338;DHT22;28933;52.492;13.434;2022-08-21T03:44:26;20.20;99.90
43338;DHT22;28933;52.492;13.434;2022-08-21T03:46:55;20.20;99.80
43338;DHT22;28933;52.492;13.434;2022-08-21T03:49:20;20.20;99.70
43338;DHT22;28933;52.492;13.434;2022-08-21T03:51:46;20.20;99.60
43338;DHT22;28933;52.492;13.434;2022-08-21T03:54:11;20.20;99.70
43338;DHT22;28933;52.492;13.434;2022-08-21T03:56:37;20.20;99.50
43338;DHT22;28933;52.492;13.434;2022-08-21T03:59:03;20.10;99.70
43338;DHT22;28933;52.492;13.434;2022-08-21T04:01:29;20.10;99.60
43338;DHT22;28933;52.492;13.434;2022-08-21T04:03:54;20.10;99.60
43338;DHT22;28933;52.492;13.434;2022-08-21T04:06:20;20.00;99.50
43338;DHT22;28933;52.492;13.434;2022-08-21T04:08:46;20.00;99.40
43338;DHT22;28933;52.492;13.434;2022-08-21T04:11:12;19.90;99.40
43338;DHT22;28933;52.492;13.434;2022-08-21T04:13:38;19.90;99.50
43338;DHT22;28933;52.492;13.434;2022-08-21T04:16:06;19.80;99.60
43338;DHT22;28933;52.492;13.434;2022-08-21T04:18:32;19.90;99.60
43338;DHT22;28933;52.492;13.434;2022-08-21T04:20:58;19.90;99.40
43338;DHT22;28933;52.492;13.434;2022-08-21T04:23:25;19.90;99.60
43338;DHT22;28933;52.492;13.434;2022-08-21T04:25:55;19.90;99.50
43338;DHT22;28933;52.492;13.434;2022-08-21T04:28:22;19.90;99.50
43338;DHT22;28933;52.492;13.434;2022-08-21T04:30:47;19.90;99.50
43338;DHT22;28933;52.492;13.434;2022-08-21T04:33:15;19.90;99.40
43338;DHT22;28933;52.492;13.434;2022-08-21T04:35:40;19.90;99.30
43338;DHT22;28933;52.492;13.434;2022-08-21T04:38:07;20.00;99.30
43338;DHT22;28933;52.492;13.434;2022-08-21T04:40:33;19.90;99.10
43338;DHT22;28933;52.492;13.434;2022-08-21T04:43:03;19.90;99.30
43338;DHT22;28933;52.492;13.434;2022-08-21T04:45:33;19.90;99.30
43338;DHT22;28933;52.492;13.434;2022-08-21T04:48:01;20.00;99.40
43338;DHT22;28933;52.492;13.434;2022-08-21T04:50:42;19.90;99.20
43338;DHT22;28933;52.492;13.434;2022-08-21T04:56:19;20.00;99.20
43338;DHT22;28933;52.492;13.434;2022-08-21T04:58:47;19.90;99.30
43338;DHT22;28933;52.492;13.434;2022-08-21T05:01:23;20.00;99.40
43338;DHT22;28933;52.492;13.434;2022-08-21T05:03:54;20.00;99.10
43338;DHT22;28933;52.492;13.434;2022-08-21T05:06:20;20.00;99.20
43338;DHT22;28933;52.492;13.434;2022-08-21T05:08:49;20.00;99.20
43338;DHT22;28933;52.492;13.434;2022-08-21T05:11:17;20.00;99.10
43338;DHT22;28933;52.492;13.434;2022-08-21T05:13:44;20.00;99.20
43338;DHT22;28933;52.492;13.434;2022-08-21T05:16:10;20.00;99.00
43338;DHT22;28933;52.492;13.434;2022-08-21T05:18:36;20.00;99.00
43338;DHT22;28933;52.492;13.434;2022-08-21T05:21:03;20.00;99.10
43338;DHT22;28933;52.492;13.434;2022-08-21T05:23:29;20.00;99.00
43338;DHT22;28933;52.492;13.434;2022-08-21T05:25:55;20.00;99.00
43338;DHT22;28933;52.492;13.434;2022-08-21T05:28:21;20.10;99.20
43338;DHT22;28933;52.492;13.434;2022-08-21T05:30:47;20.10;99.10
43338;DHT22;28933;52.492;13.434;2022-08-21T05:33:13;20.20;98.90
43338;DHT22;28933;52.492;13.434;2022-08-21T05:35:39;20.10;98.60
43338;DHT22;28933;52.492;13.434;2022-08-21T05:38:05;20.10;98.70
43338;DHT22;28933;52.492;13.434;2022-08-21T05:40:32;20.10;98.60
43338;DHT22;28933;52.492;13.434;2022-08-21T05:42:58;20.10;98.70
43338;DHT22;28933;52.492;13.434;2022-08-21T05:45:27;20.10;98.70
43338;DHT22;28933;52.492;13.434;2022-08-21T05:47:53;20.10;98.70
43338;DHT22;28933;52.492;13.434;2022-08-21T05:50:19;20.10;98.50
43338;DHT22;28933;52.492;13.434;2022-08-21T05:52:44;20.10;98.50
43338;DHT22;28933;52.492;13.434;2022-08-21T05:55:10;20.10;98.40
43338;DHT22;28933;52.492;13.434;2022-08-21T05:57:36;20.10;98.50
43338;DHT22;28933;52.492;13.434;2022-08-21T06:00:02;20.10;98.50
43338;DHT22;28933;52.492;13.434;2022-08-21T06:02:28;20.20;98.40
43338;DHT22;28933;52.492;13.434;2022-08-21T06:04:56;20.20;98.40
43338;DHT22;28933;52.492;13.434;2022-08-21T06:07:22;20.20;98.40
43338;DHT22;28933;52.492;13.434;2022-08-21T06:09:48;20.10;98.40
43338;DHT22;28933;52.492;13.434;2022-08-21T06:12:14;20.20;98.30
43338;DHT22;28933;52.492;13.434;2022-08-21T06:14:40;20.20;98.30
43338;DHT22;28933;52.492;13.434;2022-08-21T06:17:09;20.20;98.10
43338;DHT22;28933;52.492;13.434;2022-08-21T06:19:35;20.20;98.20
43338;DHT22;28933;52.492;13.434;2022-08-21T06:22:01;20.30;98.20
43338;DHT22;28933;52.492;13.434;2022-08-21T06:24:28;20.40;98.30
43338;DHT22;28933;52.492;13.434;2022-08-21T06:26:54;20.40;98.20
43338;DHT22;28933;52.492;13.434;2022-08-21T06:29:20;20.50;97.80
43338;DHT22;28933;52.492;13.434;2022-08-21T06:31:47;20.50;98.00
43338;DHT22;28933;52.492;13.434;2022-08-21T06:34:14;20.50;98.00
43338;DHT22;28933;52.492;13.434;2022-08-21T06:36:40;20.60;97.80
43338;DHT22;28933;52.492;13.434;2022-08-21T06:39:06;20.70;97.90
43338;DHT22;28933;52.492;13.434;2022-08-21T06:41:31;20.70;97.70
43338;DHT22;28933;52.492;13.434;2022-08-21T06:43:58;20.70;97.80
43338;DHT22;28933;52.492;13.434;2022-08-21T06:46:25;20.80;97.70
43338;DHT22;28933;52.492;13.434;2022-08-21T06:48:51;20.90;97.60
43338;DHT22;28933;52.492;13.434;2022-08-21T06:51:17;20.90;97.40
43338;DHT22;28933;52.492;13.434;2022-08-21T06:53:43;20.90;97.30
43338;DHT22;28933;52.492;13.434;2022-08-21T06:56:09;21.00;97.10
43338;DHT22;28933;52.492;13.434;2022-08-21T06:58:34;21.00;97.20
43338;DHT22;28933;52.492;13.434;2022-08-21T07:01:00;21.00;96.90
43338;DHT22;28933;52.492;13.434;2022-08-21T07:03:30;21.10;97.00
43338;DHT22;28933;52.492;13.434;2022-08-21T07:05:56;21.10;97.00
43338;DHT22;28933;52.492;13.434;2022-08-21T07:08:25;21.10;97.00
43338;DHT22;28933;52.492;13.434;2022-08-21T07:10:53;21.20;97.00
43338;DHT22;28933;52.492;13.434;2022-08-21T07:13:20;21.30;96.70
43338;DHT22;28933;52.492;13.434;2022-08-21T07:15:45;21.40;96.60
43338;DHT22;28933;52.492;13.434;2022-08-21T07:18:11;21.40;96.20
43338;DHT22;28933;52.492;13.434;2022-08-21T07:20:38;21.40;96.20
43338;DHT22;28933;52.492;13.434;2022-08-21T07:23:08;21.40;96.00
43338;DHT22;28933;52.492;13.434;2022-08-21T07:25:34;21.40;96.00
43338;DHT22;28933;52.492;13.434;2022-08-21T07:28:01;21.40;95.60
43338;DHT22;28933;52.492;13.434;2022-08-21T07:30:27;21.50;95.90
43338;DHT22;28933;52.492;13.434;2022-08-21T07:32:54;21.50;95.70
43338;DHT22;28933;52.492;13.434;2022-08-21T07:35:20;21.50;95.60
43338;DHT22;28933;52.492;13.434;2022-08-21T07:37:46;21.60;95.80
43338;DHT22;28933;52.492;13.434;2022-08-21T07:40:13;21.60;95.40
43338;DHT22;28933;52.492;13.434;2022-08-21T07:42:43;21.70;95.20
43338;DHT22;28933;52.492;13.434;2022-08-21T07:45:10;21.70;95.10
43338;DHT22;28933;52.492;13.434;2022-08-21T07:47:37;21.80;95.20
43338;DHT22;28933;52.492;13.434;2022-08-21T07:50:04;21.80;95.00
43338;DHT22;28933;52.492;13.434;2022-08-21T07:52:30;21.90;94.60
43338;DHT22;28933;52.492;13.434;2022-08-21T07:54:55;21.90;94.50
43338;DHT22;28933;52.492;13.434;2022-08-21T07:57:21;21.90;93.80
43338;DHT22;28933;52.492;13.434;2022-08-21T07:59:47;22.00;94.00
43338;DHT22;28933;52.492;13.434;2022-08-21T08:02:25;22.00;93.80
43338;DHT22;28933;52.492;13.434;2022-08-21T08:04:51;22.10;93.70
43338;DHT22;28933;52.492;13.434;2022-08-21T08:07:17;22.20;93.80
43338;DHT22;28933;52.492;13.434;2022-08-21T08:09:43;22.30;93.60
43338;DHT22;28933;52.492;13.434;2022-08-21T08:12:10;22.30;92.90
43338;DHT22;28933;52.492;13.434;2022-08-21T08:14:36;22.40;93.10
43338;DHT22;28933;52.492;13.434;2022-08-21T08:17:02;22.50;93.00
43338;DHT22;28933;52.492;13.434;2022-08-21T08:19:28;22.50;92.50
43338;DHT22;28933;52.492;13.434;2022-08-21T08:21:54;22.60;92.10
43338;DHT22;28933;52.492;13.434;2022-08-21T08:24:19;22.60;92.00
43338;DHT22;28933;52.492;13.434;2022-08-21T08:26:46;22.70;91.60
43338;DHT22;28933;52.492;13.434;2022-08-21T08:29:12;22.70;90.80
43338;DHT22;28933;52.492;13.434;2022-08-21T08:31:37;22.70;91.10
43338;DHT22;28933;52.492;13.434;2022-08-21T08:34:04;22.70;91.30
43338;DHT22;28933;52.492;13.434;2022-08-21T08:36:37;22.70;91.20
43338;DHT22;28933;52.492;13.434;2022-08-21T08:39:04;22.80;91.60
43338;DHT22;28933;52.492;13.434;2022-08-21T08:41:31;22.90;90.70
43338;DHT22;28933;52.492;13.434;2022-08-21T08:44:00;22.90;90.30
43338;DHT22;28933;52.492;13.434;2022-08-21T08:46:35;22.90;90.50
43338;DHT22;28933;52.492;13.434;2022-08-21T08:49:23;22.90;89.30
43338;DHT22;28933;52.492;13.434;2022-08-21T08:54:28;22.80;88.90
43338;DHT22;28933;52.492;13.434;2022-08-21T08:56:59;22.80;89.30
43338;DHT22;28933;52.492;13.434;2022-08-21T08:59:46;22.80;87.90
43338;DHT22;28933;52.492;13.434;2022-08-21T09:02:15;22.80;88.40
43338;DHT22;28933;52.492;13.434;2022-08-21T09:04:42;22.80;87.90
43338;DHT22;28933;52.492;13.434;2022-08-21T09:10:17;23.10;88.90
43338;DHT22;28933;52.492;13.434;2022-08-21T09:15:55;23.10;86.70
43338;DHT22;28933;52.492;13.434;2022-08-21T09:18:35;23.10;87.20
43338;DHT22;28933;52.492;13.434;2022-08-21T09:24:02;23.30;86.20
43338;DHT22;28933;52.492;13.434;2022-08-21T09:27:04;23.40;87.80
43338;DHT22;28933;52.492;13.434;2022-08-21T09:29:40;23.40;86.10
43338;DHT22;28933;52.492;13.434;2022-08-21T09:32:23;23.50;87.80
43338;DHT22;28933;52.492;13.434;2022-08-21T09:37:29;23.70;87.50
43338;DHT22;28933;52.492;13.434;2022-08-21T09:39:56;23.70;87.00
43338;DHT22;28933;52.492;13.434;2022-08-21T09:42:28;23.80;86.30
43338;DHT22;28933;52.492;13.434;2022-08-21T09:45:09;23.80;86.00
43338;DHT22;28933;52.492;13.434;2022-08-21T09:47:36;23.90;85.20
43338;DHT22;28933;52.492;13.434;2022-08-21T09:50:19;23.90;84.30
43338;DHT22;28933;52.492;13.434;2022-08-21T09:52:54;23.90;85.70
43338;DHT22;28933;52.492;13.434;2022-08-21T09:55:48;24.00;85.10
43338;DHT22;28933;52.492;13.434;2022-08-21T09:58:35;24.00;85.90
43338;DHT22;28933;52.492;13.434;2022-08-21T10:01:02;24.10;84.70
43338;DHT22;28933;52.492;13.434;2022-08-21T10:03:29;24.20;84.20
43338;DHT22;28933;52.492;13.434;2022-08-21T10:06:06;24.20;81.80
43338;DHT22;28933;52.492;13.434;2022-08-21T10:08:38;24.20;81.90
43338;DHT22;28933;52.492;13.434;2022-08-21T10:11:11;24.30;82.30
43338;DHT22;28933;52.492;13.434;2022-08-21T10:16:50;24.40;81.30
43338;DHT22;28933;52.492;13.434;2022-08-21T10:19:43;24.40;81.00
43338;DHT22;28933;52.492;13.434;2022-08-21T10:27:58;24.60;82.80
43338;DHT22;28933;52.492;13.434;2022-08-21T10:30:39;24.60;82.00
43338;DHT22;28933;52.492;13.434;2022-08-21T10:35:46;24.70;82.00
43338;DHT22;28933;52.492;13.434;2022-08-21T10:55:08;25.00;78.50
43338;DHT22;28933;52.492;13.434;2022-08-21T10:57:52;25.00;77.20
43338;DHT22;28933;52.492;13.434;2022-08-21T11:00:22;25.00;77.70
43338;DHT22;28933;52.492;13.434;2022-08-21T11:05:51;25.00;77.40
43338;DHT22;28933;52.492;13.434;2022-08-21T11:08:22;24.90;75.50
43338;DHT22;28933;52.492;13.434;2022-08-21T11:10:53;25.00;76.30
43338;DHT22;28933;52.492;13.434;2022-08-21T11:16:14;25.10;74.60
43338;DHT22;28933;52.492;13.434;2022-08-21T11:18:51;25.20;74.30
43338;DHT22;28933;52.492;13.434;2022-08-21T11:21:46;25.20;73.00
43338;DHT22;28933;52.492;13.434;2022-08-21T11:29:33;25.30;72.00
43338;DHT22;28933;52.492;13.434;2022-08-21T11:34:54;25.30;71.40
43338;DHT22;28933;52.492;13.434;2022-08-21T11:45:45;25.40;69.10
43338;DHT22;28933;52.492;13.434;2022-08-21T11:51:17;25.50;66.20
43338;DHT22;28933;52.492;13.434;2022-08-21T11:53:54;25.60;66.30
43338;DHT22;28933;52.492;13.434;2022-08-21T11:56:36;25.60;64.10
43338;DHT22;28933;52.492;13.434;2022-08-21T11:59:07;25.60;62.90
43338;DHT22;28933;52.492;13.434;2022-08-21T12:01:37;25.60;62.10
43338;DHT22;28933;52.492;13.434;2022-08-21T12:04:32;25.50;62.60
43338;DHT22;28933;52.492;13.434;2022-08-21T12:07:31;25.50;63.10
43338;DHT22;28933;52.492;13.434;2022-08-21T12:09:59;25.50;62.70
43338;DHT22;28933;52.492;13.434;2022-08-21T12:12:29;25.50;62.70
43338;DHT22;28933;52.492;13.434;2022-08-21T12:15:26;25.50;63.50
43338;DHT22;28933;52.492;13.434;2022-08-21T12:18:01;25.60;63.80
43338;DHT22;28933;52.492;13.434;2022-08-21T12:20:56;25.60;64.20
43338;DHT22;28933;52.492;13.434;2022-08-21T12:23:43;25.70;63.30
43338;DHT22;28933;52.492;13.434;2022-08-21T12:28:35;25.70;62.50
43338;DHT22;28933;52.492;13.434;2022-08-21T12:31:00;25.70;62.50
43338;DHT22;28933;52.492;13.434;2022-08-21T12:33:30;25.80;62.30
43338;DHT22;28933;52.492;13.434;2022-08-21T12:36:24;25.80;61.50
43338;DHT22;28933;52.492;13.434;2022-08-21T12:41:24;25.90;60.10
43338;DHT22;28933;52.492;13.434;2022-08-21T12:43:59;25.90;59.80
43338;DHT22;28933;52.492;13.434;2022-08-21T12:46:38;26.00;59.90
43338;DHT22;28933;52.492;13.434;2022-08-21T12:49:19;26.00;59.30
43338;DHT22;28933;52.492;13.434;2022-08-21T12:51:57;26.10;58.70
43338;DHT22;28933;52.492;13.434;2022-08-21T12:54:30;26.10;59.40
43338;DHT22;28933;52.492;13.434;2022-08-21T12:57:04;26.20;58.80
43338;DHT22;28933;52.492;13.434;2022-08-21T12:59:31;26.30;58.00
43338;DHT22;28933;52.492;13.434;2022-08-21T13:01:59;26.20;57.00
43338;DHT22;28933;52.492;13.434;2022-08-21T13:04:44;26.20;57.90
43338;DHT22;28933;52.492;13.434;2022-08-21T13:07:13;26.30;58.80
43338;DHT22;28933;52.492;13.434;2022-08-21T13:09:50;26.30;57.50
43338;DHT22;28933;52.492;13.434;2022-08-21T13:12:19;26.30;58.20
43338;DHT22;28933;52.492;13.434;2022-08-21T13:14:46;26.30;58.70
43338;DHT22;28933;52.492;13.434;2022-08-21T13:17:19;26.20;57.70
43338;DHT22;28933;52.492;13.434;2022-08-21T13:19:59;26.20;58.50
43338;DHT22;28933;52.492;13.434;2022-08-21T13:22:27;26.30;58.50
43338;DHT22;28933;52.492;13.434;2022-08-21T13:24:53;26.40;57.90
43338;DHT22;28933;52.492;13.434;2022-08-21T13:27:30;26.40;57.80
43338;DHT22;28933;52.492;13.434;2022-08-21T13:30:12;26.30;57.60
43338;DHT22;28933;52.492;13.434;2022-08-21T13:32:42;26.30;57.60
43338;DHT22;28933;52.492;13.434;2022-08-21T13:35:10;26.30;57.90
43338;DHT22;28933;52.492;13.434;2022-08-21T13:37:39;26.20;58.00
43338;DHT22;28933;52.492;13.434;2022-08-21T13:40:09;26.30;57.70
43338;DHT22;28933;52.492;13.434;2022-08-21T13:42:35;26.40;58.50
43338;DHT22;28933;52.492;13.434;2022-08-21T13:45:00;26.40;58.40
43338;DHT22;28933;52.492;13.434;2022-08-21T13:47:26;26.40;58.30
43338;DHT22;28933;52.492;13.434;2022-08-21T13:49:52;26.30;58.90
43338;DHT22;28933;52.492;13.434;2022-08-21T13:52:27;26.20;59.00
43338;DHT22;28933;52.492;13.434;2022-08-21T13:54:55;26.20;59.20
43338;DHT22;28933;52.492;13.434;2022-08-21T13:57:30;26.30;59.50
43338;DHT22;28933;52.492;13.434;2022-08-21T14:00:28;26.30;59.30
43338;DHT22;28933;52.492;13.434;2022-08-21T14:03:01;26.20;59.70
43338;DHT22;28933;52.492;13.434;2022-08-21T14:05:30;26.20;60.20
43338;DHT22;28933;52.492;13.434;2022-08-21T14:08:23;26.40;59.70
43338;DHT22;28933;52.492;13.434;2022-08-21T14:10:51;26.50;60.40
43338;DHT22;28933;52.492;13.434;2022-08-21T14:13:40;26.60;59.20
43338;DHT22;28933;52.492;13.434;2022-08-21T14:16:17;26.60;59.50
43338;DHT22;28933;52.492;13.434;2022-08-21T14:18:49;26.60;59.40
43338;DHT22;28933;52.492;13.434;2022-08-21T14:24:13;26.60;60.00
43338;DHT22;28933;52.492;13.434;2022-08-21T14:26:44;26.70;60.00
43338;DHT22;28933;52.492;13.434;2022-08-21T14:29:13;26.70;59.50
43338;DHT22;28933;52.492;13.434;2022-08-21T14:31:39;26.70;60.00
43338;DHT22;28933;52.492;13.434;2022-08-21T14:34:05;26.60;59.90
43338;DHT22;28933;52.492;13.434;2022-08-21T14:36:31;26.50;60.50
43338;DHT22;28933;52.492;13.434;2022-08-21T14:38:56;26.50;60.70
43338;DHT22;28933;52.492;13.434;2022-08-21T14:41:25;26.40;60.90
43338;DHT22;28933;52.492;13.434;2022-08-21T14:43:53;26.40;61.30
43338;DHT22;28933;52.492;13.434;2022-08-21T14:46:28;26.30;60.80
43338;DHT22;28933;52.492;13.434;2022-08-21T14:48:55;26.10;60.20
43338;DHT22;28933;52.492;13.434;2022-08-21T14:51:20;26.00;60.40
43338;DHT22;28933;52.492;13.434;2022-08-21T14:53:47;25.90;60.00
43338;DHT22;28933;52.492;13.434;2022-08-21T14:56:13;25.80;61.00
43338;DHT22;28933;52.492;13.434;2022-08-21T14:58:42;25.70;60.80
43338;DHT22;28933;52.492;13.434;2022-08-21T15:01:12;25.70;61.30
43338;DHT22;28933;52.492;13.434;2022-08-21T15:03:38;25.60;61.10
43338;DHT22;28933;52.492;13.434;2022-08-21T15:06:06;25.50;61.70
43338;DHT22;28933;52.492;13.434;2022-08-21T15:08:32;25.40;62.00
43338;DHT22;28933;52.492;13.434;2022-08-21T15:10:59;25.40;62.50
43338;DHT22;28933;52.492;13.434;2022-08-21T15:13:25;25.30;62.70
43338;DHT22;28933;52.492;13.434;2022-08-21T15:15:52;25.40;63.40
43338;DHT22;28933;52.492;13.434;2022-08-21T15:18:22;25.30;63.80
43338;DHT22;28933;52.492;13.434;2022-08-21T15:20:48;25.30;63.70
43338;DHT22;28933;52.492;13.434;2022-08-21T15:23:14;25.30;63.80
43338;DHT22;28933;52.492;13.434;2022-08-21T15:25:43;25.20;63.70
43338;DHT22;28933;52.492;13.434;2022-08-21T15:28:09;25.30;63.80
43338;DHT22;28933;52.492;13.434;2022-08-21T15:30:36;25.20;64.30
43338;DHT22;28933;52.492;13.434;2022-08-21T15:33:01;25.20;64.70
43338;DHT22;28933;52.492;13.434;2022-08-21T15:35:27;25.20;64.50
43338;DHT22;28933;52.492;13.434;2022-08-21T15:37:52;25.10;64.60
43338;DHT22;28933;52.492;13.434;2022-08-21T15:40:18;25.20;64.60
43338;DHT22;28933;52.492;13.434;2022-08-21T15:42:44;25.10;64.80
43338;DHT22;28933;52.492;13.434;2022-08-21T15:45:11;25.10;64.70
43338;DHT22;28933;52.492;13.434;2022-08-21T15:47:38;25.10;64.60
43338;DHT22;28933;52.492;13.434;2022-08-21T15:50:07;25.10;64.90
43338;DHT22;28933;52.492;13.434;2022-08-21T15:52:33;25.20;64.80
43338;DHT22;28933;52.492;13.434;2022-08-21T15:54:59;25.20;64.80
43338;DHT22;28933;52.492;13.434;2022-08-21T15:57:25;25.10;64.90
43338;DHT22;28933;52.492;13.434;2022-08-21T15:59:56;25.10;64.80
43338;DHT22;28933;52.492;13.434;2022-08-21T16:02:26;25.10;64.90
43338;DHT22;28933;52.492;13.434;2022-08-21T16:04:52;25.00;65.20
43338;DHT22;28933;52.492;13.434;2022-08-21T16:07:19;25.00;65.30
43338;DHT22;28933;52.492;13.434;2022-08-21T16:09:45;25.00;65.50
43338;DHT22;28933;52.492;13.434;2022-08-21T16:12:34;25.00;65.20
43338;DHT22;28933;52.492;13.434;2022-08-21T16:15:03;24.90;65.20
43338;DHT22;28933;52.492;13.434;2022-08-21T16:17:33;24.90;65.40
43338;DHT22;28933;52.492;13.434;2022-08-21T16:20:03;24.90;65.50
43338;DHT22;28933;52.492;13.434;2022-08-21T16:22:29;24.90;65.40
43338;DHT22;28933;52.492;13.434;2022-08-21T16:24:54;24.90;65.20
43338;DHT22;28933;52.492;13.434;2022-08-21T16:27:21;24.90;65.70
43338;DHT22;28933;52.492;13.434;2022-08-21T16:29:47;25.00;65.30
43338;DHT22;28933;52.492;13.434;2022-08-21T16:32:14;25.10;65.30
43338;DHT22;28933;52.492;13.434;2022-08-21T16:34:46;25.10;65.70
43338;DHT22;28933;52.492;13.434;2022-08-21T16:37:14;25.10;65.20
43338;DHT22;28933;52.492;13.434;2022-08-21T16:39:40;25.00;65.60
43338;DHT22;28933;52.492;13.434;2022-08-21T16:42:06;25.00;65.10
43338;DHT22;28933;52.492;13.434;2022-08-21T16:44:32;24.90;65.40
43338;DHT22;28933;52.492;13.434;2022-08-21T16:47:01;24.90;65.40